Time;durP1;ratioP1;P1;durP2;ratioP2;P2;SDS_P1;SDS_P2;PMS_P1;PMS_P2;Temp;Humidity;BMP_temperature;BMP_pressure;BME280_temperature;BME280_humidity;BME280_pressure;Samples;Min_cycle;Max_cycle;Signal;HPM_P1;HPM_P2
2024/01/04 00:02:22;;;;;;;;;10.00;9.00;;;;;22.02;52.27;98345.34;112051;1247;18994;-30
2024/01/04 00:04:49;;;;;;;;;6.00;5.00;;;;;22.04;52.19;98348.06;111882;1249;21921;-31
2024/01/04 00:07:17;;;;;;;;;5.00;5.00;;;;;22.02;52.12;98346.92;112069;1247;19973;-30
2024/01/04 00:09:44;;;;;;;;;8.00;7.50;;;;;22.02;52.10;98343.55;111953;1256;18767;-30
2024/01/04 00:12:11;;;;;;;;;8.00;7.00;;;;;22.03;52.12;98342.16;112087;1256;21999;-30
2024/01/04 00:14:39;;;;;;;;;7.00;7.00;;;;;22.02;52.31;98346.81;111567;1263;533642;-31
2024/01/04 00:17:06;;;;;;;;;7.00;5.00;;;;;22.00;52.08;98354.13;112137;1256;20178;-30
2024/01/04 00:19:33;;;;;;;;;7.00;7.00;;;;;21.99;52.04;98350.92;111966;1256;20758;-31
2024/01/04 00:22:01;;;;;;;;;10.00;8.00;;;;;21.98;52.11;98349.40;112104;1263;18180;-30
2024/01/04 00:24:28;;;;;;;;;7.33;7.00;;;;;21.96;52.04;98349.48;111987;1258;19980;-30
2024/01/04 00:26:55;;;;;;;;;7.00;7.00;;;;;21.95;52.05;98353.58;111960;1263;20810;-31
2024/01/04 00:29:23;;;;;;;;;7.00;7.00;;;;;21.92;52.09;98352.15;112016;1247;20855;-30
2024/01/04 00:31:50;;;;;;;;;8.00;8.00;;;;;21.88;52.20;98350.98;111705;1264;21412;-30
2024/01/04 00:34:17;;;;;;;;;7.00;5.00;;;;;21.90;52.10;98350.75;112068;1247;20800;-30
2024/01/04 00:36:45;;;;;;;;;8.00;7.00;;;;;21.90;52.26;98347.00;111900;1263;18207;-30
2024/01/04 00:39:12;;;;;;;;;7.00;7.00;;;;;21.87;51.96;98346.68;112080;1248;20082;-30
2024/01/04 00:41:39;;;;;;;;;6.00;6.00;;;;;21.90;51.91;98342.27;111932;1255;20709;-31
2024/01/04 00:44:07;;;;;;;;;4.50;4.50;;;;;21.87;52.01;98343.61;112141;1256;18217;-30
2024/01/04 00:46:34;;;;;;;;;5.00;5.00;;;;;21.87;52.05;98341.59;111949;1263;21039;-31
2024/01/04 00:49:01;;;;;;;;;7.00;7.00;;;;;21.84;52.07;98334.89;112149;1256;20869;-31
2024/01/04 00:51:28;;;;;;;;;5.00;5.00;;;;;21.82;51.94;98335.51;112008;1247;19607;-30
2024/01/04 00:53:56;;;;;;;;;8.00;5.00;;;;;21.82;52.17;98331.52;111933;1247;18855;-31
2024/01/04 00:56:23;;;;;;;;;5.00;5.00;;;;;21.82;52.02;98334.02;112016;1263;20717;-31
2024/01/04 00:58:50;;;;;;;;;6.00;5.00;;;;;21.81;52.15;98331.26;111939;1247;19610;-30
2024/01/04 01:01:18;;;;;;;;;14.00;10.00;;;;;21.81;51.86;98328.30;112033;1247;18673;-30
2024/01/04 01:03:45;;;;;;;;;5.00;5.00;;;;;21.82;51.95;98330.13;111903;1247;22359;-30
2024/01/04 01:06:12;;;;;;;;;10.00;8.00;;;;;21.83;51.61;98333.83;112058;1263;18580;-30
2024/01/04 01:08:40;;;;;;;;;8.00;5.00;;;;;21.83;51.84;98332.36;111973;1247;20058;-30
2024/01/04 01:11:07;;;;;;;;;6.00;5.00;;;;;21.84;51.74;98330.98;112006;1247;19407;-30
2024/01/04 01:13:34;;;;;;;;;4.00;4.00;;;;;21.82;51.82;98329.91;111989;1256;18204;-30
2024/01/04 01:16:01;;;;;;;;;5.00;5.00;;;;;21.81;51.77;98328.23;111966;1247;21096;-30
2024/01/04 01:18:30;;;;;;;;;7.00;5.00;;;;;21.81;51.97;98325.74;111978;1263;19448;-31
2024/01/04 01:20:57;;;;;;;;;6.00;5.00;;;;;21.81;51.84;98325.84;111966;1263;18575;-30
2024/01/04 01:23:24;;;;;;;;;4.00;4.00;;;;;21.83;51.61;98329.45;111964;1263;20292;-31
2024/01/04 01:25:51;;;;;;;;;5.00;4.00;;;;;21.81;51.67;98329.63;112010;1263;19366;-30
2024/01/04 01:28:19;;;;;;;;;5.00;5.00;;;;;21.78;51.93;98325.87;112008;1263;19541;-30
2024/01/04 01:30:46;;;;;;;;;5.00;5.00;;;;;21.79;51.80;98328.46;112039;1247;19505;-30
2024/01/04 01:33:13;;;;;;;;;6.00;5.00;;;;;21.79;51.58;98328.84;112041;1263;20615;-30
2024/01/04 01:35:41;;;;;;;;;5.00;5.00;;;;;21.80;51.73;98325.69;111952;1247;19597;-30
2024/01/04 01:38:08;;;;;;;;;5.00;5.00;;;;;21.80;51.73;98321.02;111950;1249;20173;-30
2024/01/04 01:40:36;;;;;;;;;5.00;5.00;;;;;21.80;51.62;98324.60;111904;1248;21145;-31
2024/01/04 01:43:03;;;;;;;;;8.00;5.00;;;;;21.78;51.42;98323.85;111917;1247;19565;-31
2024/01/04 01:45:30;;;;;;;;;4.00;4.00;;;;;21.76;51.55;98325.02;111999;1262;20080;-30
2024/01/04 01:47:57;;;;;;;;;5.00;5.00;;;;;21.77;51.56;98322.93;112082;1246;20715;-30
2024/01/04 01:50:25;;;;;;;;;7.00;7.00;;;;;21.79;51.43;98323.48;112050;1247;18198;-31
2024/01/04 01:52:52;;;;;;;;;7.00;5.00;;;;;21.79;51.32;98319.42;112134;1246;21255;-30
2024/01/04 01:55:20;;;;;;;;;5.00;4.50;;;;;21.78;51.34;98319.08;112097;1262;19372;-31
2024/01/04 01:57:47;;;;;;;;;6.00;5.00;;;;;21.75;51.41;98318.52;112152;1246;19595;-31
2024/01/04 02:00:14;;;;;;;;;5.00;5.00;;;;;21.77;51.60;98317.10;112016;1248;18674;-30
2024/01/04 02:02:41;;;;;;;;;4.00;4.00;;;;;21.75;51.55;98318.30;112127;1262;20684;-30
2024/01/04 02:05:09;;;;;;;;;7.00;7.00;;;;;21.75;51.71;98317.90;112024;1247;19884;-30
2024/01/04 02:07:36;;;;;;;;;5.00;4.33;;;;;21.75;51.57;98317.50;112058;1246;20205;-30
2024/01/04 02:10:04;;;;;;;;;5.00;5.00;;;;;21.75;51.37;98320.16;112098;1246;20766;-30
2024/01/04 02:12:31;;;;;;;;;5.00;5.00;;;;;21.73;51.42;98321.27;112014;1254;21024;-30
2024/01/04 02:14:58;;;;;;;;;4.00;4.00;;;;;21.72;51.59;98324.88;112091;1254;19918;-30
2024/01/04 02:17:26;;;;;;;;;4.00;4.00;;;;;21.74;51.39;98324.78;112045;1246;21913;-30
2024/01/04 02:19:53;;;;;;;;;5.00;5.00;;;;;21.73;51.32;98326.30;112120;1262;18164;-31
2024/01/04 02:22:20;;;;;;;;;2.00;2.00;;;;;21.72;51.28;98325.03;112015;1262;18647;-31
2024/01/04 02:24:48;;;;;;;;;4.00;3.00;;;;;21.68;51.55;98322.63;112195;1262;21783;-30
2024/01/04 02:27:15;;;;;;;;;5.00;5.00;;;;;21.70;51.27;98323.54;111997;1246;18342;-30
2024/01/04 02:29:42;;;;;;;;;7.00;5.00;;;;;21.70;51.32;98317.70;112172;1262;19024;-30
2024/01/04 02:32:10;;;;;;;;;5.00;4.50;;;;;21.68;51.36;98319.91;112050;1262;19355;-30
2024/01/04 02:34:37;;;;;;;;;7.00;7.00;;;;;21.69;51.56;98319.92;112169;1254;18772;-30
2024/01/04 02:37:04;;;;;;;;;4.00;4.00;;;;;21.70;51.25;98317.39;112069;1246;20658;-31
2024/01/04 02:39:32;;;;;;;;;5.00;5.00;;;;;21.68;51.05;98315.61;112051;1254;20619;-30
2024/01/04 02:41:59;;;;;;;;;4.50;4.50;;;;;21.68;51.12;98316.15;112066;1246;21189;-30
2024/01/04 02:44:26;;;;;;;;;3.33;3.33;;;;;21.67;51.10;98314.82;112036;1246;20085;-31
2024/01/04 02:46:54;;;;;;;;;4.50;4.50;;;;;21.65;50.98;98311.31;112093;1262;20905;-31
2024/01/04 02:49:21;;;;;;;;;5.00;5.00;;;;;21.64;50.96;98304.52;112016;1247;18187;-31
2024/01/04 02:51:48;;;;;;;;;4.00;4.00;;;;;21.66;51.37;98309.57;112115;1248;18596;-30
2024/01/04 02:54:16;;;;;;;;;4.33;4.00;;;;;21.66;51.14;98307.16;112018;1247;19585;-31
2024/01/04 02:56:43;;;;;;;;;4.00;4.00;;;;;21.66;51.20;98307.08;112147;1246;19555;-30
2024/01/04 02:59:10;;;;;;;;;4.00;4.00;;;;;21.68;51.16;98306.67;111985;1262;21012;-30
2024/01/04 03:01:37;;;;;;;;;4.00;4.00;;;;;21.67;51.27;98307.66;112125;1262;19623;-31
2024/01/04 03:04:05;;;;;;;;;7.00;5.00;;;;;21.65;51.35;98313.65;112058;1246;19822;-31
2024/01/04 03:06:33;;;;;;;;;5.00;4.00;;;;;21.65;51.25;98310.80;111998;1262;18601;-30
2024/01/04 03:09:00;;;;;;;;;4.00;4.00;;;;;21.66;51.09;98312.98;112006;1247;20780;-30
2024/01/04 03:11:28;;;;;;;;;5.00;5.00;;;;;21.66;51.25;98309.40;112103;1246;19568;-31
2024/01/04 03:13:55;;;;;;;;;4.00;4.00;;;;;21.65;51.03;98306.65;112039;1246;19912;-31
2024/01/04 03:16:22;;;;;;;;;6.00;4.00;;;;;21.64;50.97;98309.90;111965;1246;22305;-31
2024/01/04 03:18:50;;;;;;;;;6.00;4.00;;;;;21.65;50.92;98307.36;112053;1246;19567;-30
2024/01/04 03:21:17;;;;;;;;;3.33;3.33;;;;;21.64;51.14;98304.90;112091;1262;20082;-30
2024/01/04 03:23:44;;;;;;;;;5.00;5.00;;;;;21.63;51.03;98303.98;112117;1248;22764;-30
2024/01/04 03:26:12;;;;;;;;;4.00;2.00;;;;;21.63;51.28;98303.54;112142;1262;18587;-31
2024/01/04 03:28:39;;;;;;;;;4.00;4.00;;;;;21.63;51.17;98299.64;112129;1262;20211;-31
2024/01/04 03:31:07;;;;;;;;;5.00;5.00;;;;;21.62;50.84;98296.95;112106;1262;19364;-31
2024/01/04 03:33:34;;;;;;;;;4.00;4.00;;;;;21.63;51.04;98295.27;112092;1246;19563;-31
2024/01/04 03:36:02;;;;;;;;;5.00;5.00;;;;;21.63;50.86;98291.64;112097;1262;18662;-30
2024/01/04 03:38:29;;;;;;;;;4.00;4.00;;;;;21.63;50.84;98292.34;112043;1246;20794;-31
2024/01/04 03:40:56;;;;;;;;;4.00;4.00;;;;;21.62;50.54;98290.60;112119;1262;18676;-31
2024/01/04 03:43:24;;;;;;;;;4.00;4.00;;;;;21.63;50.74;98297.92;112008;1262;18644;-30
2024/01/04 03:45:51;;;;;;;;;5.00;4.00;;;;;21.63;50.86;98298.02;112132;1248;21077;-30
2024/01/04 03:48:18;;;;;;;;;4.00;4.00;;;;;21.64;50.91;98299.14;112044;1248;19610;-30
2024/01/04 03:50:45;;;;;;;;;4.00;4.00;;;;;21.64;50.73;98299.44;112012;1246;21659;-31
2024/01/04 03:53:13;;;;;;;;;5.00;4.00;;;;;21.63;50.67;98297.07;112051;1246;20793;-30
2024/01/04 03:55:40;;;;;;;;;4.00;4.00;;;;;21.62;50.73;98299.61;112013;1246;19608;-30
2024/01/04 03:58:08;;;;;;;;;4.50;4.00;;;;;21.61;50.77;98299.73;112051;1246;20045;-31
2024/01/04 04:00:35;;;;;;;;;3.00;3.00;;;;;21.62;50.61;98300.54;112037;1246;20624;-30
2024/01/04 04:03:02;;;;;;;;;4.00;4.00;;;;;21.62;50.79;98295.25;112098;1246;19551;-30
2024/01/04 04:05:30;;;;;;;;;4.00;4.00;;;;;21.61;50.67;98294.06;112037;1246;20034;-30
2024/01/04 04:07:57;;;;;;;;;5.00;5.00;;;;;21.62;50.92;98294.23;112095;1262;20780;-31
2024/01/04 04:10:24;;;;;;;;;2.00;2.00;;;;;21.61;50.60;98296.23;112047;1262;18201;-30
2024/01/04 04:12:52;;;;;;;;;5.00;4.00;;;;;21.62;50.72;98296.80;112158;1262;18686;-31
2024/01/04 04:15:19;;;;;;;;;5.00;5.00;;;;;21.60;50.82;98291.39;112053;1262;19423;-31
2024/01/04 04:17:46;;;;;;;;;7.00;5.00;;;;;21.61;50.84;98294.10;112151;1246;19643;-30
2024/01/04 04:20:14;;;;;;;;;5.00;5.00;;;;;21.61;50.66;98294.74;112033;1247;20015;-31
2024/01/04 04:22:41;;;;;;;;;4.00;4.00;;;;;21.60;50.46;98291.20;112160;1246;20753;-31
2024/01/04 04:25:08;;;;;;;;;7.00;6.00;;;;;21.61;50.31;98292.73;111971;1262;20634;-30
2024/01/04 04:27:36;;;;;;;;;4.00;4.00;;;;;21.59;50.33;98292.90;111980;1262;18535;-31
2024/01/04 04:30:03;;;;;;;;;4.00;4.00;;;;;21.59;50.74;98295.46;112080;1246;20697;-31
2024/01/04 04:32:30;;;;;;;;;5.00;5.00;;;;;21.60;50.57;98296.42;112047;1247;19474;-31
2024/01/04 04:34:57;;;;;;;;;4.00;4.00;;;;;21.59;50.55;98296.85;112136;1262;19974;-31
2024/01/04 04:37:25;;;;;;;;;8.00;7.00;;;;;21.60;50.40;98296.80;112058;1246;21193;-31
2024/01/04 04:39:52;;;;;;;;;8.00;5.00;;;;;21.60;50.49;98295.17;112135;1247;19410;-30
2024/01/04 04:42:19;;;;;;;;;5.00;5.00;;;;;21.60;50.55;98296.42;112063;1246;20018;-31
2024/01/04 04:44:47;;;;;;;;;5.00;5.00;;;;;21.59;50.58;98292.58;112119;1247;19400;-31
2024/01/04 04:47:14;;;;;;;;;4.00;4.00;;;;;21.60;50.67;98296.04;112024;1246;18104;-31
2024/01/04 04:49:42;;;;;;;;;7.00;7.00;;;;;21.60;50.23;98294.17;112008;1262;20000;-31
2024/01/04 04:52:09;;;;;;;;;4.00;4.00;;;;;21.59;50.36;98296.23;112002;1248;19415;-30
2024/01/04 04:54:36;;;;;;;;;7.00;6.00;;;;;21.60;50.40;98295.40;112038;1246;19618;-31
2024/01/04 04:57:05;;;;;;;;;7.00;7.00;;;;;21.58;50.62;98295.28;112015;1246;21254;-30
2024/01/04 04:59:32;;;;;;;;;5.00;5.00;;;;;21.58;50.63;98297.30;112021;1262;20646;-31
2024/01/04 05:01:59;;;;;;;;;4.50;4.50;;;;;21.59;50.29;98298.04;111995;1254;19518;-31
2024/01/04 05:04:27;;;;;;;;;5.00;5.00;;;;;21.59;50.51;98298.02;112067;1246;20101;-31
2024/01/04 05:06:54;;;;;;;;;8.00;8.00;;;;;21.59;50.36;98300.53;111997;1246;20738;-31
2024/01/04 05:09:22;;;;;;;;;5.67;5.67;;;;;21.59;50.16;98302.30;112095;1262;18172;-30
2024/01/04 05:11:49;;;;;;;;;8.00;8.00;;;;;21.60;50.28;98305.20;112053;1248;19928;-31
2024/01/04 05:14:16;;;;;;;;;7.00;5.00;;;;;21.60;50.22;98308.95;112123;1262;21042;-30
2024/01/04 05:16:44;;;;;;;;;8.00;8.00;;;;;21.59;50.21;98306.14;112069;1246;19542;-31
2024/01/04 05:19:12;;;;;;;;;10.00;8.00;;;;;21.58;50.17;98307.65;112148;1246;20172;-30
2024/01/04 05:21:39;;;;;;;;;8.00;8.00;;;;;21.59;50.08;98308.28;112122;1247;19470;-31
2024/01/04 05:24:06;;;;;;;;;7.00;7.00;;;;;21.59;50.18;98310.40;112212;1262;19988;-31
2024/01/04 05:26:33;;;;;;;;;11.00;10.00;;;;;21.59;50.36;98311.17;112114;1247;19894;-30
2024/01/04 05:29:01;;;;;;;;;9.00;7.50;;;;;21.58;50.24;98314.71;112179;1246;20771;-31
2024/01/04 05:31:28;;;;;;;;;7.00;7.00;;;;;21.57;50.40;98321.05;112183;1246;21174;-30
2024/01/04 05:33:55;;;;;;;;;6.00;6.00;;;;;21.57;50.34;98321.92;112019;1246;20001;-31
2024/01/04 05:36:23;;;;;;;;;8.00;8.00;;;;;21.57;50.25;98322.40;112081;1246;22057;-31
2024/01/04 05:38:50;;;;;;;;;6.00;6.00;;;;;21.57;50.15;98324.88;112038;1247;19826;-30
2024/01/04 05:41:18;;;;;;;;;10.00;8.00;;;;;21.57;50.32;98321.05;112114;1262;19848;-30
2024/01/04 05:43:46;;;;;;;;;11.00;10.00;;;;;21.56;50.24;98321.96;112021;1262;19333;-31
2024/01/04 05:46:13;;;;;;;;;11.00;10.00;;;;;21.55;50.21;98328.25;112101;1247;20876;-30
2024/01/04 05:48:40;;;;;;;;;9.00;7.50;;;;;21.56;50.08;98326.71;112046;1254;20404;-30
2024/01/04 05:51:08;;;;;;;;;8.00;8.00;;;;;21.55;50.27;98335.08;112147;1262;20786;-31
2024/01/04 05:53:36;;;;;;;;;11.00;10.00;;;;;21.55;50.00;98338.75;112004;1262;18560;-30
2024/01/04 05:56:03;;;;;;;;;7.00;5.67;;;;;21.55;50.13;98340.21;112134;1246;20135;-31
2024/01/04 05:58:30;;;;;;;;;8.67;8.67;;;;;21.55;50.29;98343.09;112059;1262;19372;-31
2024/01/04 06:00:58;;;;;;;;;10.00;8.00;;;;;21.55;50.14;98345.37;112139;1246;19694;-30
2024/01/04 06:03:25;;;;;;;;;8.67;8.67;;;;;21.56;50.21;98346.39;112036;1247;18722;-31
2024/01/04 06:05:52;;;;;;;;;10.00;8.00;;;;;21.55;50.22;98343.20;112173;1262;20672;-31
2024/01/04 06:08:20;;;;;;;;;8.00;8.00;;;;;21.55;50.32;98345.89;112049;1246;19552;-30
2024/01/04 06:10:47;;;;;;;;;11.00;10.00;;;;;21.56;50.26;98346.32;112189;1246;19996;-30
2024/01/04 06:13:14;;;;;;;;;8.00;8.00;;;;;21.55;50.32;98350.05;112095;1262;19336;-31
2024/01/04 06:15:42;;;;;;;;;7.00;7.00;;;;;21.56;50.16;98349.82;112243;1247;21420;-30
2024/01/04 06:18:09;;;;;;;;;7.00;7.00;;;;;21.55;50.13;98350.24;112100;1248;18570;-31
2024/01/04 06:20:38;;;;;;;;;10.00;10.00;;;;;21.56;50.20;98355.36;112219;1246;20752;-30
2024/01/04 06:23:05;;;;;;;;;7.00;7.00;;;;;21.54;50.27;98354.67;112039;1251;19584;-31
2024/01/04 06:25:32;;;;;;;;;7.50;7.00;;;;;21.56;50.19;98355.52;112210;1262;18923;-30
2024/01/04 06:28:00;;;;;;;;;8.00;8.00;;;;;21.56;50.21;98354.66;112082;1246;20642;-30
2024/01/04 06:30:27;;;;;;;;;10.00;10.00;;;;;21.55;50.27;98358.67;112243;1246;20789;-31
2024/01/04 06:32:54;;;;;;;;;8.00;7.67;;;;;21.54;50.04;98356.69;112086;1262;18764;-31
2024/01/04 06:35:22;;;;;;;;;10.00;8.00;;;;;21.55;50.04;98359.05;112178;1262;21235;-31
2024/01/04 06:37:49;;;;;;;;;8.00;7.50;;;;;21.55;49.94;98360.46;112068;1246;19585;-31
2024/01/04 06:40:16;;;;;;;;;7.50;7.50;;;;;21.55;50.16;98361.07;112057;1247;20073;-30
2024/01/04 06:42:52;;;;;;;;;10.00;8.00;;;;;21.57;50.11;98362.71;112119;1246;20731;-31
2024/01/04 06:45:20;;;;;;;;;8.00;7.00;;;;;21.64;49.90;98360.48;112068;1255;19555;-30
2024/01/04 06:47:47;;;;;;;;;7.67;7.67;;;;;21.65;49.94;98366.50;112214;1257;20174;-30
2024/01/04 06:50:14;;;;;;;;;8.00;8.00;;;;;21.71;49.96;98368.73;112072;1248;20734;-30
2024/01/04 06:52:42;;;;;;;;;8.00;7.00;;;;;21.76;50.22;98367.43;112011;1248;19660;-31
2024/01/04 06:55:10;;;;;;;;;7.00;5.00;;;;;21.77;50.65;98371.08;112102;1262;18572;-30
2024/01/04 06:57:37;;;;;;;;;7.00;7.00;;;;;21.70;51.30;98366.36;112040;1249;20879;-31
2024/01/04 07:00:04;;;;;;;;;7.00;7.00;;;;;21.84;50.78;98370.47;112059;1262;19533;-31
2024/01/04 07:02:34;;;;;;;;;5.00;5.00;;;;;21.81;50.93;98369.66;112046;1262;20460;-31
2024/01/04 07:05:03;;;;;;;;;8.00;8.00;;;;;21.79;51.37;98370.52;112058;1262;19352;-31
2024/01/04 07:07:30;;;;;;;;;7.00;7.00;;;;;21.74;51.80;98368.86;112010;1247;19597;-31
2024/01/04 07:09:58;;;;;;;;;4.00;4.00;;;;;21.77;51.87;98369.13;112021;1262;20005;-30
2024/01/04 07:12:25;;;;;;;;;4.50;4.00;;;;;21.82;51.42;98365.65;112039;1262;20684;-30
2024/01/04 07:14:52;;;;;;;;;7.00;5.00;;;;;21.86;51.39;98368.59;112080;1247;19567;-31
2024/01/04 07:17:19;;;;;;;;;4.00;4.00;;;;;21.87;51.57;98365.19;112055;1248;20100;-30
2024/01/04 07:19:47;;;;;;;;;6.00;5.00;;;;;21.92;51.36;98365.14;112037;1247;20776;-31
2024/01/04 07:22:15;;;;;;;;;6.00;6.00;;;;;22.01;51.23;98364.14;112044;1248;19604;-30
2024/01/04 07:24:43;;;;;;;;;5.00;5.00;;;;;21.89;51.45;98362.00;112053;1262;19994;-30
2024/01/04 07:27:10;;;;;;;;;7.00;7.00;;;;;21.89;51.61;98359.30;112044;1255;20857;-31
2024/01/04 07:29:37;;;;;;;;;7.50;5.00;;;;;21.88;51.78;98359.40;112069;1248;20646;-31
2024/01/04 07:32:05;;;;;;;;;8.00;8.00;;;;;21.84;51.58;98357.23;112074;1248;20049;-31
2024/01/04 07:34:32;;;;;;;;;4.00;4.00;;;;;21.83;51.75;98359.20;112068;1262;19397;-30
2024/01/04 07:36:59;;;;;;;;;5.00;5.00;;;;;21.79;52.21;98360.16;112018;1262;21186;-31
2024/01/04 07:39:27;;;;;;;;;5.00;5.00;;;;;21.72;52.23;98360.36;111993;1262;18827;-31
2024/01/04 07:41:55;;;;;;;;;5.00;5.00;;;;;21.67;52.31;98361.98;112001;1247;19267;-30
2024/01/04 07:44:22;;;;;;;;;4.00;4.00;;;;;21.69;51.33;98366.09;112133;1262;19333;-30
2024/01/04 07:46:50;;;;;;;;;4.00;4.00;;;;;21.66;51.51;98363.51;112025;1262;18708;-31
2024/01/04 07:49:17;;;;;;;;;7.00;5.00;;;;;21.63;51.42;98366.81;112046;1249;21179;-31
2024/01/04 07:51:44;;;;;;;;;5.00;4.00;;;;;21.62;50.90;98366.08;111997;1262;18163;-31
2024/01/04 07:54:12;;;;;;;;;4.00;4.00;;;;;21.66;50.50;98365.08;112005;1255;20217;-30
2024/01/04 07:56:39;;;;;;;;;4.50;4.00;;;;;21.68;50.24;98364.75;112036;1256;21180;-31
2024/01/04 07:59:06;;;;;;;;;4.00;4.00;;;;;21.76;50.58;98366.05;112046;1248;20831;-30
2024/01/04 08:01:34;;;;;;;;;5.00;5.00;;;;;21.77;50.09;98363.96;112043;1248;21327;-30
2024/01/04 08:04:01;;;;;;;;;4.00;4.00;;;;;21.76;49.67;98366.02;112085;1262;19463;-30
2024/01/04 08:06:29;;;;;;;;;5.00;4.00;;;;;21.77;49.12;98368.26;112061;1256;18166;-33
2024/01/04 08:08:56;;;;;;;;;4.00;4.00;;;;;21.76;49.28;98366.22;112037;1247;21246;-30
2024/01/04 08:11:23;;;;;;;;;2.00;2.00;;;;;21.76;49.30;98369.10;112118;1247;20901;-31
2024/01/04 08:13:51;;;;;;;;;4.00;4.00;;;;;21.74;49.18;98369.92;111982;1262;18559;-31
2024/01/04 08:16:18;;;;;;;;;4.50;4.50;;;;;21.72;49.50;98369.94;112083;1248;20251;-31
2024/01/04 08:18:45;;;;;;;;;5.00;5.00;;;;;21.77;49.62;98369.67;112035;1256;20857;-31
2024/01/04 08:21:12;;;;;;;;;5.00;5.00;;;;;21.84;49.80;98369.13;112045;1248;19617;-31
2024/01/04 08:23:40;;;;;;;;;5.00;5.00;;;;;21.83;49.88;98367.53;112123;1247;20088;-30
2024/01/04 08:26:07;;;;;;;;;4.50;4.50;;;;;21.82;50.05;98369.53;112097;1262;19387;-31
2024/01/04 08:28:36;;;;;;;;;4.00;4.00;;;;;21.76;50.31;98370.02;112037;1248;19564;-30
2024/01/04 08:31:04;;;;;;;;;7.00;4.00;;;;;21.89;49.90;98366.35;112130;1254;20046;-30
2024/01/04 08:33:31;;;;;;;;;4.00;4.00;;;;;21.85;49.76;98368.18;112158;1247;19347;-31
2024/01/04 08:35:59;;;;;;;;;4.00;4.00;;;;;21.87;49.83;98366.44;112185;1248;19792;-30
2024/01/04 08:38:26;;;;;;;;;5.00;4.00;;;;;21.83;49.62;98367.05;112099;1262;18613;-30
2024/01/04 08:40:53;;;;;;;;;2.00;2.00;;;;;21.78;49.63;98367.06;112135;1263;20579;-31
2024/01/04 08:43:20;;;;;;;;;4.50;4.00;;;;;21.80;50.18;98370.09;111978;1263;18214;-30
2024/01/04 08:45:49;;;;;;;;;4.00;4.00;;;;;21.88;50.04;98368.58;111995;1248;20029;-31
2024/01/04 08:48:17;;;;;;;;;5.00;5.00;;;;;21.84;50.30;98375.60;112041;1248;21860;-30
2024/01/04 08:50:44;;;;;;;;;3.00;3.00;;;;;21.85;50.71;98374.46;111992;1263;18187;-31
2024/01/04 08:53:13;;;;;;;;;2.00;2.00;;;;;21.78;50.85;98378.89;112044;1248;21255;-31
2024/01/04 08:55:40;;;;;;;;;4.00;2.00;;;;;21.79;50.64;98379.30;111961;1264;20874;-31
2024/01/04 08:58:08;;;;;;;;;2.00;2.00;;;;;21.80;50.92;98384.10;112009;1263;19660;-31
2024/01/04 09:00:36;;;;;;;;;4.00;4.00;;;;;21.91;50.88;98383.27;111925;1264;21034;-31
2024/01/04 09:03:03;;;;;;;;;5.00;4.00;;;;;21.90;51.00;98387.64;111912;1264;19491;-31
2024/01/04 09:05:31;;;;;;;;;4.00;2.00;;;;;21.80;51.01;98390.80;111946;1248;19660;-31
2024/01/04 09:07:58;;;;;;;;;5.00;4.00;;;;;21.85;50.91;98394.73;111937;1263;20190;-31
2024/01/04 09:10:25;;;;;;;;;;;;;;;21.86;50.93;98395.14;111953;1263;19363;-31
2024/01/04 09:12:53;;;;;;;;;4.00;4.00;;;;;21.85;51.06;98401.48;112013;1248;19661;-30
2024/01/04 09:15:20;;;;;;;;;4.00;4.00;;;;;21.77;51.47;98398.95;112035;1263;18644;-31
2024/01/04 09:17:47;;;;;;;;;4.00;4.00;;;;;21.86;51.19;98402.13;112043;1263;20647;-31
2024/01/04 09:20:15;;;;;;;;;4.00;4.00;;;;;21.82;51.01;98400.30;112016;1263;20727;-31
2024/01/04 09:22:43;;;;;;;;;4.00;4.00;;;;;21.91;50.70;98404.50;112018;1247;20009;-31
2024/01/04 09:25:10;;;;;;;;;4.00;4.00;;;;;22.12;50.65;98403.42;112029;1248;20774;-31
2024/01/04 09:27:37;;;;;;;;;4.00;4.00;;;;;22.10;50.79;98406.52;112012;1247;19672;-31
2024/01/04 09:30:04;;;;;;;;;4.00;4.00;;;;;21.98;51.10;98403.91;112012;1248;20234;-31
2024/01/04 09:32:32;;;;;;;;;2.00;2.00;;;;;21.98;51.38;98403.84;111991;1248;20771;-31
2024/01/04 09:34:59;;;;;;;;;3.33;3.33;;;;;22.00;51.25;98404.67;111962;1263;19305;-31
2024/01/04 09:37:26;;;;;;;;;4.00;4.00;;;;;21.99;51.39;98405.67;112000;1262;18659;-32
2024/01/04 09:39:54;;;;;;;;;4.00;4.00;;;;;21.98;51.57;98402.06;111967;1262;21797;-32
2024/01/04 09:42:21;;;;;;;;;4.00;4.00;;;;;21.97;51.51;98400.94;112036;1248;21091;-31
2024/01/04 09:44:48;;;;;;;;;2.00;2.00;;;;;21.97;51.64;98396.09;111945;1247;20120;-32
2024/01/04 09:47:16;;;;;;;;;4.00;4.00;;;;;21.97;51.83;98401.52;112022;1247;20711;-31
2024/01/04 09:49:43;;;;;;;;;4.00;2.00;;;;;21.98;51.96;98396.29;111933;1264;18561;-32
2024/01/04 09:52:10;;;;;;;;;4.00;4.00;;;;;21.98;51.68;98394.23;111967;1247;18574;-32
2024/01/04 09:54:38;;;;;;;;;2.00;2.00;;;;;21.96;51.60;98393.16;111971;1263;20701;-31
2024/01/04 09:57:07;;;;;;;;;4.00;2.00;;;;;21.99;51.85;98392.05;111967;1247;19669;-31
2024/01/04 09:59:34;;;;;;;;;2.00;2.00;;;;;21.90;52.33;98398.56;111953;1263;18631;-31
2024/01/04 10:02:02;;;;;;;;;4.00;4.00;;;;;21.95;52.04;98401.77;112071;1256;20988;-31
2024/01/04 10:04:29;;;;;;;;;2.00;2.00;;;;;21.86;52.23;98399.18;111959;1248;19666;-32
2024/01/04 10:06:57;;;;;;;;;2.00;2.00;;;;;21.81;52.33;98402.53;112119;1263;18651;-31
2024/01/04 10:09:25;;;;;;;;;4.00;2.00;;;;;21.79;52.25;98402.06;111972;1247;22226;-31
2024/01/04 10:11:52;;;;;;;;;4.00;2.00;;;;;21.87;52.32;98403.57;112022;1263;18222;-31
2024/01/04 10:14:20;;;;;;;;;2.00;2.00;;;;;21.83;52.19;98402.98;111927;1248;18598;-29
2024/01/04 10:16:47;;;;;;;;;98.50;72.50;;;;;21.96;51.92;98406.19;111953;1248;20941;-29
2024/01/04 10:19:14;;;;;;;;;109.00;78.00;;;;;22.02;51.81;98405.55;111874;1248;20770;-29
2024/01/04 10:21:42;;;;;;;;;101.00;75.00;;;;;21.85;52.06;98404.61;111913;1247;20720;-29
2024/01/04 10:24:13;;;;;;;;;119.50;98.00;;;;;21.83;52.08;98407.38;111877;1256;21776;-29
2024/01/04 10:26:40;;;;;;;;;116.00;85.00;;;;;21.79;52.04;98408.05;111834;1264;18888;-29
2024/01/04 10:29:07;;;;;;;;;114.00;79.00;;;;;21.82;51.52;98403.92;112038;1256;20123;-29
2024/01/04 10:31:35;;;;;;;;;106.00;75.00;;;;;21.71;51.56;98406.42;111911;1248;20837;-30
2024/01/04 10:34:03;;;;;;;;;107.00;75.00;;;;;21.77;51.65;98408.05;112030;1248;20276;-30
2024/01/04 10:36:32;;;;;;;;;90.50;63.50;;;;;21.81;51.48;98409.36;111908;1264;18646;-29
2024/01/04 10:39:00;;;;;;;;;86.00;65.00;;;;;21.90;51.42;98406.48;111940;1248;21229;-30
2024/01/04 10:41:29;;;;;;;;;76.00;58.50;;;;;22.00;51.13;98409.76;112036;1247;19989;-30
2024/01/04 10:43:56;;;;;;;;;75.50;57.00;;;;;21.96;51.41;98408.27;112069;1247;19900;-29
2024/01/04 10:46:23;;;;;;;;;68.00;51.00;;;;;21.92;51.54;98404.16;112010;1248;20743;-29
2024/01/04 10:48:51;;;;;;;;;59.00;47.00;;;;;21.87;52.18;98403.02;111927;1247;19988;-29
2024/01/04 10:51:18;;;;;;;;;59.00;46.00;;;;;21.82;52.10;98400.43;112033;1248;20217;-29
2024/01/04 10:53:45;;;;;;;;;52.00;43.00;;;;;21.93;51.71;98404.64;111913;1263;19346;-30
2024/01/04 10:56:13;;;;;;;;;;;;;;;22.03;52.05;98399.02;112077;1247;20049;-30
2024/01/04 10:58:41;;;;;;;;;52.00;41.00;;;;;22.05;52.02;98395.45;111913;1247;20976;-30
2024/01/04 11:01:09;;;;;;;;;52.50;39.50;;;;;22.09;51.95;98396.70;112046;1248;21689;-29
2024/01/04 11:03:36;;;;;;;;;40.00;36.00;;;;;22.07;51.82;98396.07;111942;1248;18551;-29
2024/01/04 11:06:04;;;;;;;;;38.00;34.00;;;;;22.06;51.81;98394.25;111995;1248;20102;-30
2024/01/04 11:08:31;;;;;;;;;40.00;31.00;;;;;22.02;51.77;98396.17;111935;1264;21333;-29
2024/01/04 11:10:58;;;;;;;;;34.50;25.00;;;;;22.00;52.15;98390.21;111991;1263;19924;-30
2024/01/04 11:13:26;;;;;;;;;28.00;25.00;;;;;21.97;51.84;98390.42;111939;1247;19104;-30
2024/01/04 11:15:53;;;;;;;;;25.00;23.00;;;;;21.96;51.84;98388.41;112037;1247;22119;-30
2024/01/04 11:18:20;;;;;;;;;27.00;20.00;;;;;21.94;51.61;98389.27;111941;1247;20038;-30
2024/01/04 11:20:48;;;;;;;;;21.00;17.00;;;;;22.08;51.24;98389.95;112057;1263;18750;-30
2024/01/04 11:23:16;;;;;;;;;24.50;22.00;;;;;22.10;51.12;98390.02;111958;1248;21874;-30
2024/01/04 11:25:43;;;;;;;;;20.00;18.00;;;;;22.04;50.84;98390.98;112026;1256;19839;-30